sensor_id;sensor_type;location;lat;lon;timestamp;pressure;altitude;pressure_sealevel;temperature;humidity
15817;BME280;8009;50.070;8.232;2024-03-17T00:01:18;100781.25;;;11.63;57.16
15817;BME280;8009;50.070;8.232;2024-03-17T00:03:47;100783.34;;;11.99;56.13
15817;BME280;8009;50.070;8.232;2024-03-17T00:06:20;100775.00;;;12.28;55.69
15817;BME280;8009;50.070;8.232;2024-03-17T00:08:48;100785.47;;;11.67;56.96
15817;BME280;8009;50.070;8.232;2024-03-17T00:11:18;100781.41;;;11.74;57.08
15817;BME280;8009;50.070;8.232;2024-03-17T00:13:47;100784.31;;;11.71;56.63
15817;BME280;8009;50.070;8.232;2024-03-17T00:16:15;100780.34;;;11.77;56.81
15817;BME280;8009;50.070;8.232;2024-03-17T00:18:44;100787.00;;;10.90;58.81
15817;BME280;8009;50.070;8.232;2024-03-17T00:21:14;100778.00;;;11.04;59.08
15817;BME280;8009;50.070;8.232;2024-03-17T00:23:43;100786.25;;;10.73;59.04
15817;BME280;8009;50.070;8.232;2024-03-17T00:26:10;100780.72;;;11.31;56.86
15817;BME280;8009;50.070;8.232;2024-03-17T00:39:04;100777.09;;;10.47;59.27
15817;BME280;8009;50.070;8.232;2024-03-17T00:41:33;100771.59;;;10.78;58.03
15817;BME280;8009;50.070;8.232;2024-03-17T00:43:58;100762.91;;;10.72;58.58
15817;BME280;8009;50.070;8.232;2024-03-17T00:51:38;100766.69;;;11.38;56.00
15817;BME280;8009;50.070;8.232;2024-03-17T00:59:31;100757.97;;;10.08;59.92
15817;BME280;8009;50.070;8.232;2024-03-17T01:07:12;100745.16;;;11.10;56.56
15817;BME280;8009;50.070;8.232;2024-03-17T01:09:40;100739.50;;;11.27;55.63
15817;BME280;8009;50.070;8.232;2024-03-17T01:22:29;100733.66;;;10.22;59.30
15817;BME280;8009;50.070;8.232;2024-03-17T01:24:58;100735.91;;;10.15;59.54
15817;BME280;8009;50.070;8.232;2024-03-17T01:27:23;100726.16;;;10.41;58.33
15817;BME280;8009;50.070;8.232;2024-03-17T01:29:54;100730.09;;;11.06;57.70
15817;BME280;8009;50.070;8.232;2024-03-17T01:32:20;100728.19;;;10.38;58.91
15817;BME280;8009;50.070;8.232;2024-03-17T01:34:49;100723.09;;;10.19;59.51
15817;BME280;8009;50.070;8.232;2024-03-17T01:37:14;100720.94;;;9.81;60.39
15817;BME280;8009;50.070;8.232;2024-03-17T01:39:47;100718.59;;;9.45;61.63
15817;BME280;8009;50.070;8.232;2024-03-17T01:42:19;100712.91;;;10.38;59.31
15817;BME280;8009;50.070;8.232;2024-03-17T01:47:23;100707.75;;;9.46;61.50
15817;BME280;8009;50.070;8.232;2024-03-17T01:49:53;100702.34;;;10.62;58.34
15817;BME280;8009;50.070;8.232;2024-03-17T01:57:46;100702.75;;;9.24;62.87
15817;BME280;8009;50.070;8.232;2024-03-17T02:03:04;100692.06;;;10.26;58.51
15817;BME280;8009;50.070;8.232;2024-03-17T02:05:34;100693.03;;;9.52;61.22
15817;BME280;8009;50.070;8.232;2024-03-17T02:08:00;100697.53;;;10.24;59.34
15817;BME280;8009;50.070;8.232;2024-03-17T02:10:29;100690.66;;;9.76;60.65
15817;BME280;8009;50.070;8.232;2024-03-17T02:17:59;100679.34;;;10.42;57.71
15817;BME280;8009;50.070;8.232;2024-03-17T02:20:27;100694.44;;;9.43;61.15
15817;BME280;8009;50.070;8.232;2024-03-17T02:23:11;100692.41;;;9.77;60.18
15817;BME280;8009;50.070;8.232;2024-03-17T02:25:41;100698.59;;;9.19;62.33
15817;BME280;8009;50.070;8.232;2024-03-17T02:28:08;100690.91;;;9.27;61.63
15817;BME280;8009;50.070;8.232;2024-03-17T02:30:37;100692.78;;;9.71;60.09
15817;BME280;8009;50.070;8.232;2024-03-17T02:41:09;100681.00;;;10.31;58.43
15817;BME280;8009;50.070;8.232;2024-03-17T02:43:38;100684.66;;;9.26;61.19
15817;BME280;8009;50.070;8.232;2024-03-17T02:48:42;100667.00;;;9.37;61.59
15817;BME280;8009;50.070;8.232;2024-03-17T02:58:56;100671.13;;;8.82;62.86
15817;BME280;8009;50.070;8.232;2024-03-17T03:01:24;100683.53;;;8.04;64.84
15817;BME280;8009;50.070;8.232;2024-03-17T03:14:52;100679.22;;;8.66;63.56
15817;BME280;8009;50.070;8.232;2024-03-17T03:19:56;100684.53;;;9.14;61.19
15817;BME280;8009;50.070;8.232;2024-03-17T03:25:09;100679.13;;;8.68;62.98
15817;BME280;8009;50.070;8.232;2024-03-17T03:27:40;100677.88;;;8.42;63.96
15817;BME280;8009;50.070;8.232;2024-03-17T03:30:12;100678.16;;;8.37;63.53
15817;BME280;8009;50.070;8.232;2024-03-17T03:32:40;100680.03;;;8.98;61.98
15817;BME280;8009;50.070;8.232;2024-03-17T03:35:14;100681.38;;;8.75;62.36
15817;BME280;8009;50.070;8.232;2024-03-17T03:37:45;100682.56;;;8.70;63.03
15817;BME280;8009;50.070;8.232;2024-03-17T03:40:17;100680.09;;;8.67;62.66
15817;BME280;8009;50.070;8.232;2024-03-17T03:42:46;100676.06;;;8.58;63.21
15817;BME280;8009;50.070;8.232;2024-03-17T03:45:18;100684.84;;;8.46;63.14
15817;BME280;8009;50.070;8.232;2024-03-17T03:47:49;100671.78;;;9.01;61.56
15817;BME280;8009;50.070;8.232;2024-03-17T03:50:21;100684.47;;;8.36;63.68
15817;BME280;8009;50.070;8.232;2024-03-17T03:52:50;100694.47;;;8.50;63.44
15817;BME280;8009;50.070;8.232;2024-03-17T03:55:19;100692.03;;;8.45;63.79
15817;BME280;8009;50.070;8.232;2024-03-17T03:57:47;100690.38;;;7.94;64.64
15817;BME280;8009;50.070;8.232;2024-03-17T04:00:20;100683.97;;;8.77;62.76
15817;BME280;8009;50.070;8.232;2024-03-17T04:02:52;100699.00;;;7.83;65.42
15817;BME280;8009;50.070;8.232;2024-03-17T04:07:55;100707.31;;;7.78;65.79
15817;BME280;8009;50.070;8.232;2024-03-17T04:10:24;100697.69;;;8.41;63.77
15817;BME280;8009;50.070;8.232;2024-03-17T04:12:52;100700.81;;;8.49;63.29
15817;BME280;8009;50.070;8.232;2024-03-17T04:15:26;100686.03;;;9.78;60.22
15817;BME280;8009;50.070;8.232;2024-03-17T04:17:55;100698.19;;;8.95;62.18
15817;BME280;8009;50.070;8.232;2024-03-17T04:20:23;100691.06;;;9.10;62.16
15817;BME280;8009;50.070;8.232;2024-03-17T04:22:52;100686.34;;;9.73;59.76
15817;BME280;8009;50.070;8.232;2024-03-17T04:25:23;100687.78;;;8.73;62.93
15817;BME280;8009;50.070;8.232;2024-03-17T04:27:52;100679.31;;;9.41;60.82
15817;BME280;8009;50.070;8.232;2024-03-17T04:30:20;100680.47;;;9.81;59.38
15817;BME280;8009;50.070;8.232;2024-03-17T04:32:53;100682.00;;;9.11;61.76
15817;BME280;8009;50.070;8.232;2024-03-17T04:35:22;100687.34;;;8.65;62.78
15817;BME280;8009;50.070;8.232;2024-03-17T04:37:50;100678.72;;;9.06;61.60
15817;BME280;8009;50.070;8.232;2024-03-17T04:40:19;100677.97;;;8.72;62.97
15817;BME280;8009;50.070;8.232;2024-03-17T04:42:47;100675.34;;;9.02;62.35
15817;BME280;8009;50.070;8.232;2024-03-17T04:45:16;100684.81;;;8.77;62.83
15817;BME280;8009;50.070;8.232;2024-03-17T04:47:44;100683.09;;;8.61;63.07
15817;BME280;8009;50.070;8.232;2024-03-17T04:50:17;100699.78;;;8.51;63.29
15817;BME280;8009;50.070;8.232;2024-03-17T04:52:46;100693.53;;;8.51;63.41
15817;BME280;8009;50.070;8.232;2024-03-17T04:55:16;100696.59;;;8.27;64.31
15817;BME280;8009;50.070;8.232;2024-03-17T04:57:45;100701.53;;;8.19;64.31
15817;BME280;8009;50.070;8.232;2024-03-17T05:00:14;100693.53;;;8.51;64.61
15817;BME280;8009;50.070;8.232;2024-03-17T05:02:48;100690.22;;;8.93;62.64
15817;BME280;8009;50.070;8.232;2024-03-17T05:05:19;100686.88;;;9.64;60.55
15817;BME280;8009;50.070;8.232;2024-03-17T05:07:49;100690.31;;;8.76;62.71
15817;BME280;8009;50.070;8.232;2024-03-17T05:10:20;100692.28;;;8.88;63.24
15817;BME280;8009;50.070;8.232;2024-03-17T05:12:49;100698.56;;;8.41;64.56
15817;BME280;8009;50.070;8.232;2024-03-17T05:15:18;100686.38;;;8.97;62.42
15817;BME280;8009;50.070;8.232;2024-03-17T05:17:47;100674.34;;;9.49;60.91
15817;BME280;8009;50.070;8.232;2024-03-17T05:20:15;100674.78;;;9.86;59.62
15817;BME280;8009;50.070;8.232;2024-03-17T05:22:48;100678.06;;;10.34;58.64
15817;BME280;8009;50.070;8.232;2024-03-17T05:25:17;100677.84;;;10.65;57.10
15817;BME280;8009;50.070;8.232;2024-03-17T05:27:45;100673.06;;;10.83;56.83
15817;BME280;8009;50.070;8.232;2024-03-17T05:30:14;100681.94;;;8.96;62.54
15817;BME280;8009;50.070;8.232;2024-03-17T05:32:43;100686.41;;;8.66;63.40
15817;BME280;8009;50.070;8.232;2024-03-17T05:35:12;100688.72;;;9.34;61.90
15817;BME280;8009;50.070;8.232;2024-03-17T05:40:59;100694.41;;;8.67;63.50
15817;BME280;8009;50.070;8.232;2024-03-17T05:43:32;100680.97;;;9.13;61.99
15817;BME280;8009;50.070;8.232;2024-03-17T05:46:02;100686.84;;;8.90;62.54
15817;BME280;8009;50.070;8.232;2024-03-17T05:48:31;100683.56;;;10.04;59.62
15817;BME280;8009;50.070;8.232;2024-03-17T05:51:03;100680.25;;;10.56;57.91
15817;BME280;8009;50.070;8.232;2024-03-17T05:53:32;100680.47;;;9.37;61.08
15817;BME280;8009;50.070;8.232;2024-03-17T05:56:03;100683.34;;;9.78;60.44
15817;BME280;8009;50.070;8.232;2024-03-17T05:58:33;100686.97;;;9.02;63.75
15817;BME280;8009;50.070;8.232;2024-03-17T06:01:03;100691.44;;;8.72;63.71
15817;BME280;8009;50.070;8.232;2024-03-17T06:03:32;100684.59;;;9.42;62.56
15817;BME280;8009;50.070;8.232;2024-03-17T06:06:01;100685.25;;;9.01;63.44
15817;BME280;8009;50.070;8.232;2024-03-17T06:08:30;100689.03;;;8.67;64.20
15817;BME280;8009;50.070;8.232;2024-03-17T06:10:58;100683.63;;;8.83;63.44
15817;BME280;8009;50.070;8.232;2024-03-17T06:13:30;100682.31;;;8.90;63.30
15817;BME280;8009;50.070;8.232;2024-03-17T06:16:01;100682.50;;;8.71;64.18
15817;BME280;8009;50.070;8.232;2024-03-17T06:18:31;100680.13;;;9.27;62.21
15817;BME280;8009;50.070;8.232;2024-03-17T06:21:00;100682.56;;;9.32;61.82
15817;BME280;8009;50.070;8.232;2024-03-17T06:23:28;100676.31;;;9.90;59.93
15817;BME280;8009;50.070;8.232;2024-03-17T06:25:57;100672.56;;;9.78;60.85
15817;BME280;8009;50.070;8.232;2024-03-17T06:28:30;100672.84;;;9.73;60.59
15817;BME280;8009;50.070;8.232;2024-03-17T06:30:59;100668.44;;;10.44;58.86
15817;BME280;8009;50.070;8.232;2024-03-17T06:33:30;100676.50;;;9.72;60.98
15817;BME280;8009;50.070;8.232;2024-03-17T06:36:00;100663.56;;;10.63;58.33
15817;BME280;8009;50.070;8.232;2024-03-17T06:38:26;100658.31;;;10.33;58.71
15817;BME280;8009;50.070;8.232;2024-03-17T06:40:55;100662.19;;;10.70;57.22
15817;BME280;8009;50.070;8.232;2024-03-17T06:43:25;100672.28;;;9.97;60.11
15817;BME280;8009;50.070;8.232;2024-03-17T06:45:56;100670.47;;;10.26;59.16
15817;BME280;8009;50.070;8.232;2024-03-17T06:48:26;100657.06;;;10.53;58.40
15817;BME280;8009;50.070;8.232;2024-03-17T06:50:55;100660.03;;;10.06;59.77
15817;BME280;8009;50.070;8.232;2024-03-17T06:53:24;100658.75;;;9.68;60.81
15817;BME280;8009;50.070;8.232;2024-03-17T06:55:54;100658.50;;;10.30;59.55
15817;BME280;8009;50.070;8.232;2024-03-17T06:58:23;100657.16;;;9.94;59.88
15817;BME280;8009;50.070;8.232;2024-03-17T07:00:56;100662.44;;;10.10;59.47
15817;BME280;8009;50.070;8.232;2024-03-17T07:03:25;100663.41;;;10.09;59.18
15817;BME280;8009;50.070;8.232;2024-03-17T07:05:54;100656.63;;;11.53;55.21
15817;BME280;8009;50.070;8.232;2024-03-17T07:08:23;100648.50;;;11.66;54.79
15817;BME280;8009;50.070;8.232;2024-03-17T07:10:59;100656.41;;;11.56;55.07
15817;BME280;8009;50.070;8.232;2024-03-17T07:13:29;100655.00;;;11.76;53.96
15817;BME280;8009;50.070;8.232;2024-03-17T07:16:00;100660.63;;;12.24;53.24
15817;BME280;8009;50.070;8.232;2024-03-17T07:18:31;100654.13;;;11.63;54.79
15817;BME280;8009;50.070;8.232;2024-03-17T07:21:01;100649.84;;;11.86;51.97
15817;BME280;8009;50.070;8.232;2024-03-17T07:23:31;100653.31;;;12.13;52.36
15817;BME280;8009;50.070;8.232;2024-03-17T07:26:00;100653.91;;;12.17;51.28
15817;BME280;8009;50.070;8.232;2024-03-17T07:28:30;100644.78;;;12.43;51.09
15817;BME280;8009;50.070;8.232;2024-03-17T07:31:02;100644.91;;;12.66;50.05
15817;BME280;8009;50.070;8.232;2024-03-17T07:33:30;100638.28;;;12.70;48.72
15817;BME280;8009;50.070;8.232;2024-03-17T07:36:00;100638.06;;;12.97;49.23
15817;BME280;8009;50.070;8.232;2024-03-17T07:38:31;100639.69;;;12.76;48.88
15817;BME280;8009;50.070;8.232;2024-03-17T07:41:02;100640.97;;;12.83;47.37
15817;BME280;8009;50.070;8.232;2024-03-17T07:43:32;100640.84;;;12.84;46.88
15817;BME280;8009;50.070;8.232;2024-03-17T07:46:04;100638.03;;;13.10;46.66
15817;BME280;8009;50.070;8.232;2024-03-17T07:48:34;100644.53;;;13.07;47.20
15817;BME280;8009;50.070;8.232;2024-03-17T07:51:04;100638.72;;;13.25;44.80
15817;BME280;8009;50.070;8.232;2024-03-17T07:53:34;100640.78;;;13.21;47.16
15817;BME280;8009;50.070;8.232;2024-03-17T07:56:05;100643.13;;;13.61;43.36
15817;BME280;8009;50.070;8.232;2024-03-17T07:58:39;100643.41;;;13.69;44.66
15817;BME280;8009;50.070;8.232;2024-03-17T08:01:17;100648.66;;;13.48;43.98
15817;BME280;8009;50.070;8.232;2024-03-17T08:03:46;100657.81;;;13.47;44.30
15817;BME280;8009;50.070;8.232;2024-03-17T08:06:20;100646.97;;;13.70;44.58
15817;BME280;8009;50.070;8.232;2024-03-17T08:08:49;100641.09;;;13.98;44.05
15817;BME280;8009;50.070;8.232;2024-03-17T08:11:18;100639.41;;;14.08;44.87
15817;BME280;8009;50.070;8.232;2024-03-17T08:13:46;100647.41;;;14.10;45.75
15817;BME280;8009;50.070;8.232;2024-03-17T08:16:17;100656.00;;;13.93;46.68
15817;BME280;8009;50.070;8.232;2024-03-17T08:18:45;100656.31;;;14.12;46.14
15817;BME280;8009;50.070;8.232;2024-03-17T08:21:14;100659.88;;;14.01;46.75
15817;BME280;8009;50.070;8.232;2024-03-17T08:23:45;100659.47;;;13.83;47.24
15817;BME280;8009;50.070;8.232;2024-03-17T08:26:13;100650.72;;;13.91;47.11
15817;BME280;8009;50.070;8.232;2024-03-17T08:28:41;100652.66;;;13.67;48.10
15817;BME280;8009;50.070;8.232;2024-03-17T08:31:11;100654.44;;;13.90;47.61
15817;BME280;8009;50.070;8.232;2024-03-17T08:33:43;100649.75;;;14.03;47.17
15817;BME280;8009;50.070;8.232;2024-03-17T08:36:16;100648.16;;;13.19;49.59
15817;BME280;8009;50.070;8.232;2024-03-17T08:38:45;100651.34;;;13.95;44.52
15817;BME280;8009;50.070;8.232;2024-03-17T08:41:13;100639.13;;;14.34;43.85
15817;BME280;8009;50.070;8.232;2024-03-17T08:43:42;100649.25;;;14.21;44.98
15817;BME280;8009;50.070;8.232;2024-03-17T08:46:11;100636.16;;;14.37;44.13
15817;BME280;8009;50.070;8.232;2024-03-17T08:48:43;100628.00;;;14.14;44.29
15817;BME280;8009;50.070;8.232;2024-03-17T08:51:11;100622.94;;;14.66;43.07
15817;BME280;8009;50.070;8.232;2024-03-17T08:53:39;100625.53;;;14.56;42.27
15817;BME280;8009;50.070;8.232;2024-03-17T08:56:07;100626.25;;;14.81;41.75
15817;BME280;8009;50.070;8.232;2024-03-17T08:58:36;100629.16;;;14.12;43.25
15817;BME280;8009;50.070;8.232;2024-03-17T09:01:05;100623.34;;;14.50;42.92
15817;BME280;8009;50.070;8.232;2024-03-17T09:03:33;100631.38;;;14.84;42.58
15817;BME280;8009;50.070;8.232;2024-03-17T09:06:04;100631.56;;;14.71;42.35
15817;BME280;8009;50.070;8.232;2024-03-17T09:08:42;100622.34;;;14.95;41.79
15817;BME280;8009;50.070;8.232;2024-03-17T09:11:12;100630.63;;;14.93;41.52
15817;BME280;8009;50.070;8.232;2024-03-17T09:13:41;100637.38;;;14.44;41.63
15817;BME280;8009;50.070;8.232;2024-03-17T09:16:10;100638.63;;;14.18;42.11
15817;BME280;8009;50.070;8.232;2024-03-17T09:18:39;100635.69;;;14.54;41.75
15817;BME280;8009;50.070;8.232;2024-03-17T09:21:10;100623.59;;;14.91;41.80
15817;BME280;8009;50.070;8.232;2024-03-17T09:23:39;100628.16;;;14.58;42.44
15817;BME280;8009;50.070;8.232;2024-03-17T09:26:08;100622.06;;;14.66;42.42
15817;BME280;8009;50.070;8.232;2024-03-17T09:28:38;100618.69;;;14.84;42.56
15817;BME280;8009;50.070;8.232;2024-03-17T09:31:06;100615.75;;;14.65;42.68
15817;BME280;8009;50.070;8.232;2024-03-17T09:33:35;100620.06;;;14.68;40.63
15817;BME280;8009;50.070;8.232;2024-03-17T09:36:05;100621.81;;;14.57;40.18
15817;BME280;8009;50.070;8.232;2024-03-17T09:38:38;100617.97;;;14.71;40.23
15817;BME280;8009;50.070;8.232;2024-03-17T09:41:19;100625.69;;;14.55;40.29
15817;BME280;8009;50.070;8.232;2024-03-17T09:43:48;100620.72;;;14.15;41.07
15817;BME280;8009;50.070;8.232;2024-03-17T09:46:17;100609.34;;;14.98;40.54
15817;BME280;8009;50.070;8.232;2024-03-17T09:48:46;100603.28;;;14.74;41.06
15817;BME280;8009;50.070;8.232;2024-03-17T09:51:19;100612.13;;;15.19;40.67
15817;BME280;8009;50.070;8.232;2024-03-17T09:53:50;100602.66;;;15.34;39.26
15817;BME280;8009;50.070;8.232;2024-03-17T09:56:20;100601.50;;;15.58;39.83
15817;BME280;8009;50.070;8.232;2024-03-17T09:58:50;100597.50;;;15.41;39.88
15817;BME280;8009;50.070;8.232;2024-03-17T10:01:18;100599.84;;;14.38;41.35
15817;BME280;8009;50.070;8.232;2024-03-17T10:03:48;100598.31;;;14.79;40.70
15817;BME280;8009;50.070;8.232;2024-03-17T10:06:19;100593.34;;;15.58;39.92
15817;BME280;8009;50.070;8.232;2024-03-17T10:08:46;100602.97;;;15.83;40.42
15817;BME280;8009;50.070;8.232;2024-03-17T10:11:19;100594.94;;;15.81;40.79
15817;BME280;8009;50.070;8.232;2024-03-17T10:13:59;100599.88;;;15.67;40.94
15817;BME280;8009;50.070;8.232;2024-03-17T10:16:30;100603.78;;;15.74;40.99
15817;BME280;8009;50.070;8.232;2024-03-17T10:19:06;100596.94;;;15.58;40.69
15817;BME280;8009;50.070;8.232;2024-03-17T10:21:36;100598.91;;;15.56;40.42
15817;BME280;8009;50.070;8.232;2024-03-17T10:24:06;100598.06;;;15.77;39.09
15817;BME280;8009;50.070;8.232;2024-03-17T10:26:36;100593.41;;;15.89;38.72
15817;BME280;8009;50.070;8.232;2024-03-17T10:29:05;100593.06;;;15.82;38.72
15817;BME280;8009;50.070;8.232;2024-03-17T10:31:44;100592.72;;;15.96;39.71
15817;BME280;8009;50.070;8.232;2024-03-17T10:34:15;100596.06;;;15.58;39.44
15817;BME280;8009;50.070;8.232;2024-03-17T10:36:44;100602.56;;;15.88;39.35
15817;BME280;8009;50.070;8.232;2024-03-17T10:39:27;100602.75;;;15.65;40.80
15817;BME280;8009;50.070;8.232;2024-03-17T10:42:03;100603.34;;;15.69;40.61
15817;BME280;8009;50.070;8.232;2024-03-17T10:44:34;100605.41;;;15.86;40.86
15817;BME280;8009;50.070;8.232;2024-03-17T10:47:04;100599.06;;;15.55;41.08
15817;BME280;8009;50.070;8.232;2024-03-17T10:49:36;100587.09;;;15.88;40.38
15817;BME280;8009;50.070;8.232;2024-03-17T10:52:06;100579.34;;;15.83;40.40
15817;BME280;8009;50.070;8.232;2024-03-17T10:54:35;100582.84;;;15.95;41.10
15817;BME280;8009;50.070;8.232;2024-03-17T10:57:21;100584.72;;;16.04;41.15
15817;BME280;8009;50.070;8.232;2024-03-17T10:59:54;100577.75;;;16.21;40.63
15817;BME280;8009;50.070;8.232;2024-03-17T11:02:24;100573.16;;;16.72;39.26
15817;BME280;8009;50.070;8.232;2024-03-17T11:04:55;100576.13;;;16.09;40.19
15817;BME280;8009;50.070;8.232;2024-03-17T11:07:24;100570.69;;;16.09;41.47
15817;BME280;8009;50.070;8.232;2024-03-17T11:09:55;100578.53;;;16.02;41.48
15817;BME280;8009;50.070;8.232;2024-03-17T11:12:43;100577.34;;;16.26;41.36
15817;BME280;8009;50.070;8.232;2024-03-17T11:15:39;100567.41;;;16.65;39.02
15817;BME280;8009;50.070;8.232;2024-03-17T11:18:35;100566.63;;;16.34;40.12
15817;BME280;8009;50.070;8.232;2024-03-17T11:21:05;100554.41;;;16.28;41.04
15817;BME280;8009;50.070;8.232;2024-03-17T11:23:41;100551.03;;;16.65;40.08
15817;BME280;8009;50.070;8.232;2024-03-17T11:26:10;100560.50;;;16.61;40.66
15817;BME280;8009;50.070;8.232;2024-03-17T11:28:48;100563.72;;;16.26;40.23
15817;BME280;8009;50.070;8.232;2024-03-17T11:31:34;100560.19;;;16.54;40.01
15817;BME280;8009;50.070;8.232;2024-03-17T11:34:06;100550.31;;;16.73;41.56
15817;BME280;8009;50.070;8.232;2024-03-17T11:36:34;100549.94;;;16.97;39.51
15817;BME280;8009;50.070;8.232;2024-03-17T11:39:06;100546.34;;;16.96;40.31
15817;BME280;8009;50.070;8.232;2024-03-17T11:41:37;100551.81;;;17.06;40.81
15817;BME280;8009;50.070;8.232;2024-03-17T11:44:23;100550.06;;;17.05;40.93
15817;BME280;8009;50.070;8.232;2024-03-17T11:46:50;100542.59;;;17.17;38.59
15817;BME280;8009;50.070;8.232;2024-03-17T11:49:23;100545.28;;;16.49;40.90
15817;BME280;8009;50.070;8.232;2024-03-17T11:51:52;100551.03;;;16.65;41.31
15817;BME280;8009;50.070;8.232;2024-03-17T11:54:20;100546.44;;;16.66;41.57
15817;BME280;8009;50.070;8.232;2024-03-17T11:56:50;100548.22;;;15.34;43.77
15817;BME280;8009;50.070;8.232;2024-03-17T11:59:19;100537.56;;;16.64;40.88
15817;BME280;8009;50.070;8.232;2024-03-17T12:01:48;100541.75;;;17.07;40.90
15817;BME280;8009;50.070;8.232;2024-03-17T12:04:16;100545.78;;;16.23;42.71
15817;BME280;8009;50.070;8.232;2024-03-17T12:06:45;100535.66;;;16.45;40.83
15817;BME280;8009;50.070;8.232;2024-03-17T12:09:18;100533.09;;;16.53;41.63
15817;BME280;8009;50.070;8.232;2024-03-17T12:11:50;100540.28;;;15.52;43.21
15817;BME280;8009;50.070;8.232;2024-03-17T12:14:20;100527.22;;;17.16;41.92
15817;BME280;8009;50.070;8.232;2024-03-17T12:16:49;100520.41;;;17.39;39.28
15817;BME280;8009;50.070;8.232;2024-03-17T12:19:17;100513.88;;;17.79;39.60
15817;BME280;8009;50.070;8.232;2024-03-17T12:21:51;100511.38;;;17.86;40.22
15817;BME280;8009;50.070;8.232;2024-03-17T12:24:18;100505.97;;;18.03;39.06
15817;BME280;8009;50.070;8.232;2024-03-17T12:26:47;100509.09;;;17.24;40.92
15817;BME280;8009;50.070;8.232;2024-03-17T12:29:27;100503.19;;;17.86;39.02
15817;BME280;8009;50.070;8.232;2024-03-17T12:31:59;100504.75;;;18.16;39.02
15817;BME280;8009;50.070;8.232;2024-03-17T12:34:28;100501.06;;;18.07;39.57
15817;BME280;8009;50.070;8.232;2024-03-17T12:36:58;100500.81;;;18.28;40.19
15817;BME280;8009;50.070;8.232;2024-03-17T12:39:25;100497.94;;;17.65;40.05
15817;BME280;8009;50.070;8.232;2024-03-17T12:42:04;100503.91;;;17.41;41.30
15817;BME280;8009;50.070;8.232;2024-03-17T12:44:33;100505.38;;;17.72;41.51
15817;BME280;8009;50.070;8.232;2024-03-17T12:47:03;100494.47;;;17.63;41.29
15817;BME280;8009;50.070;8.232;2024-03-17T12:49:31;100497.06;;;18.29;39.23
15817;BME280;8009;50.070;8.232;2024-03-17T12:52:01;100489.78;;;17.55;41.13
15817;BME280;8009;50.070;8.232;2024-03-17T12:54:27;100489.53;;;17.48;41.49
15817;BME280;8009;50.070;8.232;2024-03-17T12:59:43;100475.78;;;18.05;40.08
15817;BME280;8009;50.070;8.232;2024-03-17T13:02:24;100467.53;;;18.15;39.82
15817;BME280;8009;50.070;8.232;2024-03-17T13:07:44;100467.81;;;17.00;42.22
15817;BME280;8009;50.070;8.232;2024-03-17T13:10:16;100465.78;;;16.15;44.27
15817;BME280;8009;50.070;8.232;2024-03-17T13:12:47;100455.44;;;17.05;42.97
15817;BME280;8009;50.070;8.232;2024-03-17T13:15:18;100446.31;;;17.34;41.72
15817;BME280;8009;50.070;8.232;2024-03-17T13:17:47;100432.19;;;17.48;40.63
15817;BME280;8009;50.070;8.232;2024-03-17T13:20:19;100428.41;;;18.14;39.80
15817;BME280;8009;50.070;8.232;2024-03-17T13:22:47;100431.22;;;16.93;42.13
15817;BME280;8009;50.070;8.232;2024-03-17T13:25:16;100417.78;;;17.93;40.07
15817;BME280;8009;50.070;8.232;2024-03-17T13:27:49;100412.25;;;17.75;41.76
15817;BME280;8009;50.070;8.232;2024-03-17T13:30:25;100413.94;;;17.86;41.55
15817;BME280;8009;50.070;8.232;2024-03-17T13:32:54;100415.81;;;17.48;41.75
15817;BME280;8009;50.070;8.232;2024-03-17T13:35:26;100406.03;;;17.83;41.87
15817;BME280;8009;50.070;8.232;2024-03-17T13:38:00;100411.28;;;17.94;41.78
15817;BME280;8009;50.070;8.232;2024-03-17T13:40:28;100402.94;;;17.96;41.27
15817;BME280;8009;50.070;8.232;2024-03-17T13:42:56;100402.06;;;17.95;41.25
15817;BME280;8009;50.070;8.232;2024-03-17T13:45:29;100401.50;;;17.37;42.41
15817;BME280;8009;50.070;8.232;2024-03-17T13:48:04;100398.47;;;17.67;42.51
15817;BME280;8009;50.070;8.232;2024-03-17T13:50:36;100397.50;;;17.59;42.48
15817;BME280;8009;50.070;8.232;2024-03-17T13:53:04;100397.66;;;16.53;44.03
15817;BME280;8009;50.070;8.232;2024-03-17T13:55:32;100396.47;;;16.95;43.49
15817;BME280;8009;50.070;8.232;2024-03-17T13:58:04;100386.44;;;17.60;43.10
15817;BME280;8009;50.070;8.232;2024-03-17T14:00:35;100395.94;;;17.56;43.41
15817;BME280;8009;50.070;8.232;2024-03-17T14:03:05;100390.66;;;16.22;45.32
15817;BME280;8009;50.070;8.232;2024-03-17T14:05:36;100387.19;;;16.49;45.19
15817;BME280;8009;50.070;8.232;2024-03-17T14:08:06;100393.63;;;16.87;45.49
15817;BME280;8009;50.070;8.232;2024-03-17T14:10:35;100394.53;;;17.52;43.51
15817;BME280;8009;50.070;8.232;2024-03-17T14:13:04;100378.94;;;17.35;44.28
15817;BME280;8009;50.070;8.232;2024-03-17T14:15:36;100393.06;;;16.83;44.58
15817;BME280;8009;50.070;8.232;2024-03-17T14:18:05;100380.25;;;17.58;43.64
15817;BME280;8009;50.070;8.232;2024-03-17T14:20:34;100386.66;;;17.76;43.59
15817;BME280;8009;50.070;8.232;2024-03-17T14:23:02;100387.25;;;17.43;44.05
15817;BME280;8009;50.070;8.232;2024-03-17T14:25:33;100381.44;;;17.83;43.15
15817;BME280;8009;50.070;8.232;2024-03-17T14:28:02;100382.78;;;17.04;45.02
15817;BME280;8009;50.070;8.232;2024-03-17T14:30:31;100381.78;;;17.05;44.40
15817;BME280;8009;50.070;8.232;2024-03-17T14:33:03;100378.09;;;17.62;43.87
15817;BME280;8009;50.070;8.232;2024-03-17T14:35:33;100363.97;;;17.66;43.01
15817;BME280;8009;50.070;8.232;2024-03-17T14:38:02;100370.91;;;17.61;43.92
15817;BME280;8009;50.070;8.232;2024-03-17T14:40:34;100376.31;;;17.15;44.59
15817;BME280;8009;50.070;8.232;2024-03-17T14:43:03;100365.69;;;17.12;44.63
15817;BME280;8009;50.070;8.232;2024-03-17T14:45:32;100368.66;;;17.28;44.42
15817;BME280;8009;50.070;8.232;2024-03-17T14:48:03;100361.88;;;17.33;45.28
15817;BME280;8009;50.070;8.232;2024-03-17T14:50:34;100361.41;;;17.37;44.25
15817;BME280;8009;50.070;8.232;2024-03-17T14:53:03;100360.19;;;17.22;44.33
15817;BME280;8009;50.070;8.232;2024-03-17T14:55:31;100356.72;;;16.83;45.48
15817;BME280;8009;50.070;8.232;2024-03-17T14:58:00;100355.09;;;17.64;44.05